sensor_id;sensor_type;location;lat;lon;timestamp;temperature;humidity
38592;DHT22;24356;48.460;11.450;2022-08-14T00:02:09;16.30;71.30
38592;DHT22;24356;48.460;11.450;2022-08-14T00:04:35;16.30;71.20
38592;DHT22;24356;48.460;11.450;2022-08-14T00:07:03;16.20;71.30
38592;DHT22;24356;48.460;11.450;2022-08-14T00:09:29;16.20;71.30
38592;DHT22;24356;48.460;11.450;2022-08-14T00:11:54;16.20;71.40
38592;DHT22;24356;48.460;11.450;2022-08-14T00:14:21;16.20;71.40
38592;DHT22;24356;48.460;11.450;2022-08-14T00:16:47;16.10;71.40
38592;DHT22;24356;48.460;11.450;2022-08-14T00:19:15;16.10;71.40
38592;DHT22;24356;48.460;11.450;2022-08-14T00:21:40;16.10;71.30
38592;DHT22;24356;48.460;11.450;2022-08-14T00:24:06;16.00;71.30
38592;DHT22;24356;48.460;11.450;2022-08-14T00:26:32;16.00;71.50
38592;DHT22;24356;48.460;11.450;2022-08-14T00:28:57;16.00;71.50
38592;DHT22;24356;48.460;11.450;2022-08-14T00:31:23;16.00;71.60
38592;DHT22;24356;48.460;11.450;2022-08-14T00:33:48;15.90;71.50
38592;DHT22;24356;48.460;11.450;2022-08-14T00:36:14;15.90;71.50
38592;DHT22;24356;48.460;11.450;2022-08-14T00:38:40;15.90;71.60
38592;DHT22;24356;48.460;11.450;2022-08-14T00:41:08;15.90;71.60
38592;DHT22;24356;48.460;11.450;2022-08-14T00:43:34;15.90;71.60
38592;DHT22;24356;48.460;11.450;2022-08-14T00:46:07;15.80;71.60
38592;DHT22;24356;48.460;11.450;2022-08-14T00:48:33;15.80;71.60
38592;DHT22;24356;48.460;11.450;2022-08-14T00:50:59;15.80;71.80
38592;DHT22;24356;48.460;11.450;2022-08-14T00:53:25;15.80;71.70
38592;DHT22;24356;48.460;11.450;2022-08-14T00:55:52;15.70;71.70
38592;DHT22;24356;48.460;11.450;2022-08-14T00:58:20;15.70;71.80
38592;DHT22;24356;48.460;11.450;2022-08-14T01:00:55;15.70;71.90
38592;DHT22;24356;48.460;11.450;2022-08-14T01:03:21;15.70;71.90
38592;DHT22;24356;48.460;11.450;2022-08-14T01:05:49;15.60;72.00
38592;DHT22;24356;48.460;11.450;2022-08-14T01:08:21;15.60;72.00
38592;DHT22;24356;48.460;11.450;2022-08-14T01:10:48;15.60;72.00
38592;DHT22;24356;48.460;11.450;2022-08-14T01:13:31;15.60;72.20
38592;DHT22;24356;48.460;11.450;2022-08-14T01:16:06;15.60;72.20
38592;DHT22;24356;48.460;11.450;2022-08-14T01:18:34;15.50;72.10
38592;DHT22;24356;48.460;11.450;2022-08-14T01:21:36;15.50;72.10
38592;DHT22;24356;48.460;11.450;2022-08-14T01:24:04;15.50;72.00
38592;DHT22;24356;48.460;11.450;2022-08-14T01:26:33;15.40;72.30
38592;DHT22;24356;48.460;11.450;2022-08-14T01:29:00;15.40;72.20
38592;DHT22;24356;48.460;11.450;2022-08-14T01:31:31;15.40;72.30
38592;DHT22;24356;48.460;11.450;2022-08-14T01:34:02;15.40;72.20
38592;DHT22;24356;48.460;11.450;2022-08-14T01:36:29;15.40;72.20
38592;DHT22;24356;48.460;11.450;2022-08-14T01:39:12;15.30;72.30
38592;DHT22;24356;48.460;11.450;2022-08-14T01:41:39;15.30;72.30
38592;DHT22;24356;48.460;11.450;2022-08-14T01:44:09;15.30;72.20
38592;DHT22;24356;48.460;11.450;2022-08-14T01:46:42;15.30;72.30
38592;DHT22;24356;48.460;11.450;2022-08-14T01:49:13;15.20;72.40
38592;DHT22;24356;48.460;11.450;2022-08-14T01:51:40;15.20;72.40
38592;DHT22;24356;48.460;11.450;2022-08-14T01:54:10;15.20;72.40
38592;DHT22;24356;48.460;11.450;2022-08-14T01:56:37;15.20;72.50
38592;DHT22;24356;48.460;11.450;2022-08-14T01:59:08;15.20;72.50
38592;DHT22;24356;48.460;11.450;2022-08-14T02:01:34;15.10;72.50
38592;DHT22;24356;48.460;11.450;2022-08-14T02:04:03;15.10;72.50
38592;DHT22;24356;48.460;11.450;2022-08-14T02:06:29;15.10;72.50
38592;DHT22;24356;48.460;11.450;2022-08-14T02:08:55;15.10;72.50
38592;DHT22;24356;48.460;11.450;2022-08-14T02:11:21;15.00;72.50
38592;DHT22;24356;48.460;11.450;2022-08-14T02:14:02;15.00;72.50
38592;DHT22;24356;48.460;11.450;2022-08-14T02:16:34;15.00;72.50
38592;DHT22;24356;48.460;11.450;2022-08-14T02:19:09;15.00;72.50
38592;DHT22;24356;48.460;11.450;2022-08-14T02:21:35;14.90;72.60
38592;DHT22;24356;48.460;11.450;2022-08-14T02:24:03;14.90;72.80
38592;DHT22;24356;48.460;11.450;2022-08-14T02:26:37;14.90;72.80
38592;DHT22;24356;48.460;11.450;2022-08-14T02:29:11;14.90;72.70
38592;DHT22;24356;48.460;11.450;2022-08-14T02:31:40;14.90;72.70
38592;DHT22;24356;48.460;11.450;2022-08-14T02:36:38;14.80;72.70
38592;DHT22;24356;48.460;11.450;2022-08-14T02:39:06;14.80;72.80
38592;DHT22;24356;48.460;11.450;2022-08-14T02:41:32;14.80;72.70
38592;DHT22;24356;48.460;11.450;2022-08-14T02:43:59;14.80;72.70
38592;DHT22;24356;48.460;11.450;2022-08-14T02:46:25;14.70;72.90
38592;DHT22;24356;48.460;11.450;2022-08-14T02:48:52;14.70;72.80
38592;DHT22;24356;48.460;11.450;2022-08-14T02:51:18;14.70;72.90
38592;DHT22;24356;48.460;11.450;2022-08-14T02:53:45;14.70;72.80
38592;DHT22;24356;48.460;11.450;2022-08-14T02:56:13;14.70;72.90
38592;DHT22;24356;48.460;11.450;2022-08-14T02:58:51;14.60;72.80
38592;DHT22;24356;48.460;11.450;2022-08-14T03:01:19;14.60;73.00
38592;DHT22;24356;48.460;11.450;2022-08-14T03:03:46;14.60;72.90
38592;DHT22;24356;48.460;11.450;2022-08-14T03:06:17;14.60;72.90
38592;DHT22;24356;48.460;11.450;2022-08-14T03:08:42;14.50;73.00
38592;DHT22;24356;48.460;11.450;2022-08-14T03:11:10;14.50;73.10
38592;DHT22;24356;48.460;11.450;2022-08-14T03:13:38;14.50;73.20
38592;DHT22;24356;48.460;11.450;2022-08-14T03:16:06;14.50;73.00
38592;DHT22;24356;48.460;11.450;2022-08-14T03:18:33;14.50;73.10
38592;DHT22;24356;48.460;11.450;2022-08-14T03:21:02;14.50;73.10
38592;DHT22;24356;48.460;11.450;2022-08-14T03:23:28;14.40;73.20
38592;DHT22;24356;48.460;11.450;2022-08-14T03:26:00;14.40;73.20
38592;DHT22;24356;48.460;11.450;2022-08-14T03:28:27;14.40;73.10
38592;DHT22;24356;48.460;11.450;2022-08-14T03:30:54;14.40;73.20
38592;DHT22;24356;48.460;11.450;2022-08-14T03:33:22;14.40;73.20
38592;DHT22;24356;48.460;11.450;2022-08-14T03:35:48;14.40;73.20
38592;DHT22;24356;48.460;11.450;2022-08-14T03:38:16;14.30;73.30
38592;DHT22;24356;48.460;11.450;2022-08-14T03:40:42;14.30;73.20
38592;DHT22;24356;48.460;11.450;2022-08-14T03:43:09;14.30;73.20
38592;DHT22;24356;48.460;11.450;2022-08-14T03:45:36;14.30;73.20
38592;DHT22;24356;48.460;11.450;2022-08-14T03:48:14;14.30;73.20
38592;DHT22;24356;48.460;11.450;2022-08-14T03:50:46;14.20;73.30
38592;DHT22;24356;48.460;11.450;2022-08-14T03:53:12;14.20;73.30
38592;DHT22;24356;48.460;11.450;2022-08-14T03:55:39;14.20;73.30
38592;DHT22;24356;48.460;11.450;2022-08-14T03:58:07;14.20;73.30
38592;DHT22;24356;48.460;11.450;2022-08-14T04:00:35;14.20;73.40
38592;DHT22;24356;48.460;11.450;2022-08-14T04:03:02;14.20;73.40
38592;DHT22;24356;48.460;11.450;2022-08-14T04:05:31;14.10;73.50
38592;DHT22;24356;48.460;11.450;2022-08-14T04:07:58;14.10;73.40
38592;DHT22;24356;48.460;11.450;2022-08-14T04:10:24;14.10;73.40
38592;DHT22;24356;48.460;11.450;2022-08-14T04:12:50;14.10;73.40
38592;DHT22;24356;48.460;11.450;2022-08-14T04:15:16;14.10;73.40
38592;DHT22;24356;48.460;11.450;2022-08-14T04:17:45;14.10;73.40
38592;DHT22;24356;48.460;11.450;2022-08-14T04:20:12;14.00;73.60
38592;DHT22;24356;48.460;11.450;2022-08-14T04:22:38;14.00;73.60
38592;DHT22;24356;48.460;11.450;2022-08-14T04:25:09;14.00;73.50
38592;DHT22;24356;48.460;11.450;2022-08-14T04:27:35;14.00;73.60
38592;DHT22;24356;48.460;11.450;2022-08-14T04:30:01;14.00;73.60
38592;DHT22;24356;48.460;11.450;2022-08-14T04:32:27;14.00;73.60
38592;DHT22;24356;48.460;11.450;2022-08-14T04:34:54;14.00;73.70
38592;DHT22;24356;48.460;11.450;2022-08-14T04:37:21;14.00;73.60
38592;DHT22;24356;48.460;11.450;2022-08-14T04:40:07;13.90;73.70
38592;DHT22;24356;48.460;11.450;2022-08-14T04:42:51;13.90;73.60
38592;DHT22;24356;48.460;11.450;2022-08-14T04:45:35;13.90;73.70
38592;DHT22;24356;48.460;11.450;2022-08-14T04:48:09;13.90;73.70
38592;DHT22;24356;48.460;11.450;2022-08-14T04:50:44;13.90;73.60
38592;DHT22;24356;48.460;11.450;2022-08-14T04:53:33;13.90;73.80
38592;DHT22;24356;48.460;11.450;2022-08-14T04:55:59;13.90;73.80
38592;DHT22;24356;48.460;11.450;2022-08-14T04:58:29;13.90;73.70
38592;DHT22;24356;48.460;11.450;2022-08-14T05:00:58;13.90;73.70
38592;DHT22;24356;48.460;11.450;2022-08-14T05:03:26;13.90;73.70
38592;DHT22;24356;48.460;11.450;2022-08-14T05:05:53;13.90;73.80
38592;DHT22;24356;48.460;11.450;2022-08-14T05:08:19;13.90;74.00
38592;DHT22;24356;48.460;11.450;2022-08-14T05:10:50;13.90;73.80
38592;DHT22;24356;48.460;11.450;2022-08-14T05:13:20;13.90;74.00
38592;DHT22;24356;48.460;11.450;2022-08-14T05:15:47;14.00;74.00
38592;DHT22;24356;48.460;11.450;2022-08-14T05:18:16;14.00;74.00
38592;DHT22;24356;48.460;11.450;2022-08-14T05:20:43;14.00;73.80
38592;DHT22;24356;48.460;11.450;2022-08-14T05:23:12;14.00;74.00
38592;DHT22;24356;48.460;11.450;2022-08-14T05:25:39;14.00;73.80
38592;DHT22;24356;48.460;11.450;2022-08-14T05:28:11;14.00;73.80
38592;DHT22;24356;48.460;11.450;2022-08-14T05:30:45;14.10;73.90
38592;DHT22;24356;48.460;11.450;2022-08-14T05:33:12;14.10;73.90
38592;DHT22;24356;48.460;11.450;2022-08-14T05:35:38;14.10;73.90
38592;DHT22;24356;48.460;11.450;2022-08-14T05:38:08;14.10;73.80
38592;DHT22;24356;48.460;11.450;2022-08-14T05:40:34;14.10;73.70
38592;DHT22;24356;48.460;11.450;2022-08-14T05:43:00;14.20;73.80
38592;DHT22;24356;48.460;11.450;2022-08-14T05:45:25;14.20;73.70
38592;DHT22;24356;48.460;11.450;2022-08-14T05:47:51;14.20;73.70
38592;DHT22;24356;48.460;11.450;2022-08-14T05:50:17;14.20;73.80
38592;DHT22;24356;48.460;11.450;2022-08-14T05:52:42;14.30;73.50
38592;DHT22;24356;48.460;11.450;2022-08-14T05:55:09;14.30;73.50
38592;DHT22;24356;48.460;11.450;2022-08-14T05:57:46;14.30;73.40
38592;DHT22;24356;48.460;11.450;2022-08-14T06:00:13;14.40;73.40
38592;DHT22;24356;48.460;11.450;2022-08-14T06:02:39;14.40;73.20
38592;DHT22;24356;48.460;11.450;2022-08-14T06:05:04;14.50;73.10
38592;DHT22;24356;48.460;11.450;2022-08-14T06:07:30;14.50;73.20
38592;DHT22;24356;48.460;11.450;2022-08-14T06:09:59;14.50;73.50
38592;DHT22;24356;48.460;11.450;2022-08-14T06:12:25;14.60;74.40
38592;DHT22;24356;48.460;11.450;2022-08-14T06:14:50;14.60;74.10
38592;DHT22;24356;48.460;11.450;2022-08-14T06:17:16;14.70;75.10
38592;DHT22;24356;48.460;11.450;2022-08-14T06:19:41;14.70;75.20
38592;DHT22;24356;48.460;11.450;2022-08-14T06:22:07;14.70;75.20
38592;DHT22;24356;48.460;11.450;2022-08-14T06:24:32;14.80;75.20
38592;DHT22;24356;48.460;11.450;2022-08-14T06:26:58;14.80;75.10
38592;DHT22;24356;48.460;11.450;2022-08-14T06:29:23;14.90;75.50
38592;DHT22;24356;48.460;11.450;2022-08-14T06:31:49;15.00;74.50
38592;DHT22;24356;48.460;11.450;2022-08-14T06:34:15;15.10;74.70
38592;DHT22;24356;48.460;11.450;2022-08-14T06:36:41;15.10;74.30
38592;DHT22;24356;48.460;11.450;2022-08-14T06:39:07;15.20;74.00
38592;DHT22;24356;48.460;11.450;2022-08-14T06:41:33;15.30;74.00
38592;DHT22;24356;48.460;11.450;2022-08-14T06:43:58;15.40;74.00
38592;DHT22;24356;48.460;11.450;2022-08-14T06:46:27;15.50;74.00
38592;DHT22;24356;48.460;11.450;2022-08-14T06:48:52;15.50;74.10
38592;DHT22;24356;48.460;11.450;2022-08-14T06:51:19;15.60;73.90
38592;DHT22;24356;48.460;11.450;2022-08-14T06:53:45;15.70;74.10
38592;DHT22;24356;48.460;11.450;2022-08-14T06:56:12;15.80;73.90
38592;DHT22;24356;48.460;11.450;2022-08-14T06:58:38;15.80;73.50
38592;DHT22;24356;48.460;11.450;2022-08-14T07:01:03;15.90;73.20
38592;DHT22;24356;48.460;11.450;2022-08-14T07:03:47;15.90;73.40
38592;DHT22;24356;48.460;11.450;2022-08-14T07:06:32;16.00;73.30
38592;DHT22;24356;48.460;11.450;2022-08-14T07:08:57;16.10;73.30
38592;DHT22;24356;48.460;11.450;2022-08-14T07:11:23;16.20;73.00
38592;DHT22;24356;48.460;11.450;2022-08-14T07:13:48;16.30;73.30
38592;DHT22;24356;48.460;11.450;2022-08-14T07:16:14;16.50;73.00
38592;DHT22;24356;48.460;11.450;2022-08-14T07:18:40;16.60;72.80
38592;DHT22;24356;48.460;11.450;2022-08-14T07:21:08;16.70;73.10
38592;DHT22;24356;48.460;11.450;2022-08-14T07:23:34;16.80;72.70
38592;DHT22;24356;48.460;11.450;2022-08-14T07:26:01;16.90;73.30
38592;DHT22;24356;48.460;11.450;2022-08-14T07:28:34;17.00;72.50
38592;DHT22;24356;48.460;11.450;2022-08-14T07:31:02;17.20;72.70
38592;DHT22;24356;48.460;11.450;2022-08-14T07:33:31;17.30;73.00
38592;DHT22;24356;48.460;11.450;2022-08-14T07:36:00;17.40;73.20
38592;DHT22;24356;48.460;11.450;2022-08-14T07:38:28;17.60;73.10
38592;DHT22;24356;48.460;11.450;2022-08-14T07:40:53;17.70;73.30
38592;DHT22;24356;48.460;11.450;2022-08-14T07:43:19;17.80;73.10
38592;DHT22;24356;48.460;11.450;2022-08-14T07:45:46;18.00;73.60
38592;DHT22;24356;48.460;11.450;2022-08-14T07:48:11;18.10;73.10
38592;DHT22;24356;48.460;11.450;2022-08-14T07:50:37;18.20;73.40
38592;DHT22;24356;48.460;11.450;2022-08-14T07:53:05;18.40;73.00
38592;DHT22;24356;48.460;11.450;2022-08-14T07:55:31;18.60;72.60
38592;DHT22;24356;48.460;11.450;2022-08-14T07:57:58;19.00;72.20
38592;DHT22;24356;48.460;11.450;2022-08-14T08:00:24;19.60;69.00
38592;DHT22;24356;48.460;11.450;2022-08-14T08:02:53;20.00;68.30
38592;DHT22;24356;48.460;11.450;2022-08-14T08:05:21;20.30;67.00
38592;DHT22;24356;48.460;11.450;2022-08-14T08:07:49;20.50;67.00
38592;DHT22;24356;48.460;11.450;2022-08-14T08:10:22;20.70;66.30
38592;DHT22;24356;48.460;11.450;2022-08-14T08:13:08;20.90;66.00
38592;DHT22;24356;48.460;11.450;2022-08-14T08:15:44;21.10;66.70
38592;DHT22;24356;48.460;11.450;2022-08-14T08:18:11;21.30;66.90
38592;DHT22;24356;48.460;11.450;2022-08-14T08:20:41;21.50;66.80
38592;DHT22;24356;48.460;11.450;2022-08-14T08:23:07;21.60;66.50
38592;DHT22;24356;48.460;11.450;2022-08-14T08:25:36;21.80;66.10
38592;DHT22;24356;48.460;11.450;2022-08-14T08:28:12;22.00;63.80
38592;DHT22;24356;48.460;11.450;2022-08-14T08:30:47;22.30;64.30
38592;DHT22;24356;48.460;11.450;2022-08-14T08:33:14;22.60;63.60
38592;DHT22;24356;48.460;11.450;2022-08-14T08:35:42;22.80;63.50
38592;DHT22;24356;48.460;11.450;2022-08-14T08:38:14;23.00;62.80
38592;DHT22;24356;48.460;11.450;2022-08-14T08:40:44;23.10;63.80
38592;DHT22;24356;48.460;11.450;2022-08-14T08:43:20;23.40;61.70
38592;DHT22;24356;48.460;11.450;2022-08-14T08:46:07;23.60;60.80
38592;DHT22;24356;48.460;11.450;2022-08-14T08:48:52;23.80;59.80
38592;DHT22;24356;48.460;11.450;2022-08-14T08:56:34;24.10;60.50
38592;DHT22;24356;48.460;11.450;2022-08-14T08:59:00;24.30;59.10
38592;DHT22;24356;48.460;11.450;2022-08-14T09:01:29;24.40;59.90
38592;DHT22;24356;48.460;11.450;2022-08-14T09:04:04;24.50;59.20
38592;DHT22;24356;48.460;11.450;2022-08-14T09:06:30;24.70;58.20
38592;DHT22;24356;48.460;11.450;2022-08-14T09:08:56;24.80;58.90
38592;DHT22;24356;48.460;11.450;2022-08-14T09:11:22;24.90;58.10
38592;DHT22;24356;48.460;11.450;2022-08-14T09:13:52;25.00;56.70
38592;DHT22;24356;48.460;11.450;2022-08-14T09:16:20;25.10;56.50
38592;DHT22;24356;48.460;11.450;2022-08-14T09:18:46;25.10;55.70
38592;DHT22;24356;48.460;11.450;2022-08-14T09:21:12;25.30;57.40
38592;DHT22;24356;48.460;11.450;2022-08-14T09:23:39;25.50;56.40
38592;DHT22;24356;48.460;11.450;2022-08-14T09:26:05;25.60;56.50
38592;DHT22;24356;48.460;11.450;2022-08-14T09:28:30;25.60;55.90
38592;DHT22;24356;48.460;11.450;2022-08-14T09:30:57;25.60;57.30
38592;DHT22;24356;48.460;11.450;2022-08-14T09:33:56;25.70;54.80
38592;DHT22;24356;48.460;11.450;2022-08-14T09:39:29;26.00;57.10
38592;DHT22;24356;48.460;11.450;2022-08-14T09:42:05;26.10;56.80
38592;DHT22;24356;48.460;11.450;2022-08-14T09:45:13;26.40;56.50
38592;DHT22;24356;48.460;11.450;2022-08-14T09:47:45;26.50;54.10
38592;DHT22;24356;48.460;11.450;2022-08-14T09:52:48;26.70;53.10
38592;DHT22;24356;48.460;11.450;2022-08-14T09:55:20;26.90;53.80
38592;DHT22;24356;48.460;11.450;2022-08-14T09:57:46;27.10;52.90
38592;DHT22;24356;48.460;11.450;2022-08-14T10:00:13;27.10;52.70
38592;DHT22;24356;48.460;11.450;2022-08-14T10:02:51;27.00;52.30
38592;DHT22;24356;48.460;11.450;2022-08-14T10:05:27;27.20;52.90
38592;DHT22;24356;48.460;11.450;2022-08-14T10:07:54;27.40;52.90
38592;DHT22;24356;48.460;11.450;2022-08-14T10:10:39;27.60;52.80
38592;DHT22;24356;48.460;11.450;2022-08-14T10:13:21;27.90;52.10
38592;DHT22;24356;48.460;11.450;2022-08-14T10:15:48;28.10;52.40
38592;DHT22;24356;48.460;11.450;2022-08-14T10:18:18;28.30;51.60
38592;DHT22;24356;48.460;11.450;2022-08-14T10:20:58;28.40;50.50
38592;DHT22;24356;48.460;11.450;2022-08-14T10:23:27;28.60;51.70
38592;DHT22;24356;48.460;11.450;2022-08-14T10:26:03;28.60;49.50
38592;DHT22;24356;48.460;11.450;2022-08-14T10:28:47;28.80;51.50
38592;DHT22;24356;48.460;11.450;2022-08-14T10:31:24;29.00;49.50
38592;DHT22;24356;48.460;11.450;2022-08-14T10:36:48;29.20;49.50
38592;DHT22;24356;48.460;11.450;2022-08-14T10:39:23;29.60;48.70
38592;DHT22;24356;48.460;11.450;2022-08-14T10:42:02;29.60;49.10
38592;DHT22;24356;48.460;11.450;2022-08-14T10:44:37;29.60;48.80
38592;DHT22;24356;48.460;11.450;2022-08-14T10:47:04;29.60;49.30
38592;DHT22;24356;48.460;11.450;2022-08-14T10:49:59;30.00;49.40
38592;DHT22;24356;48.460;11.450;2022-08-14T10:52:28;30.20;49.40
38592;DHT22;24356;48.460;11.450;2022-08-14T10:55:14;30.20;49.40
38592;DHT22;24356;48.460;11.450;2022-08-14T10:57:49;30.20;50.20
38592;DHT22;24356;48.460;11.450;2022-08-14T11:00:18;30.10;50.30
38592;DHT22;24356;48.460;11.450;2022-08-14T11:02:43;30.30;47.60
38592;DHT22;24356;48.460;11.450;2022-08-14T11:05:15;30.30;46.30
38592;DHT22;24356;48.460;11.450;2022-08-14T11:08:02;30.00;47.90
38592;DHT22;24356;48.460;11.450;2022-08-14T11:10:52;29.90;47.80
38592;DHT22;24356;48.460;11.450;2022-08-14T11:13:23;30.00;47.50
38592;DHT22;24356;48.460;11.450;2022-08-14T11:15:50;30.00;47.90
38592;DHT22;24356;48.460;11.450;2022-08-14T11:18:17;30.20;47.50
38592;DHT22;24356;48.460;11.450;2022-08-14T11:20:51;30.20;47.50
38592;DHT22;24356;48.460;11.450;2022-08-14T11:23:21;30.20;47.90
38592;DHT22;24356;48.460;11.450;2022-08-14T11:25:52;30.20;48.80
38592;DHT22;24356;48.460;11.450;2022-08-14T11:28:22;30.30;48.80
38592;DHT22;24356;48.460;11.450;2022-08-14T11:30:49;30.40;48.80
38592;DHT22;24356;48.460;11.450;2022-08-14T11:33:15;30.30;48.00
38592;DHT22;24356;48.460;11.450;2022-08-14T11:35:41;30.20;49.00
38592;DHT22;24356;48.460;11.450;2022-08-14T11:38:08;30.30;49.90
38592;DHT22;24356;48.460;11.450;2022-08-14T11:40:37;30.10;47.80
38592;DHT22;24356;48.460;11.450;2022-08-14T11:43:06;30.10;48.20
38592;DHT22;24356;48.460;11.450;2022-08-14T11:45:36;30.20;49.20
38592;DHT22;24356;48.460;11.450;2022-08-14T11:48:22;30.40;50.20
38592;DHT22;24356;48.460;11.450;2022-08-14T11:50:49;30.60;50.50
38592;DHT22;24356;48.460;11.450;2022-08-14T11:53:28;30.70;49.90
38592;DHT22;24356;48.460;11.450;2022-08-14T11:56:05;30.80;49.80
38592;DHT22;24356;48.460;11.450;2022-08-14T11:58:35;30.80;50.40
38592;DHT22;24356;48.460;11.450;2022-08-14T12:01:06;30.90;50.30
38592;DHT22;24356;48.460;11.450;2022-08-14T12:03:54;30.90;50.20
38592;DHT22;24356;48.460;11.450;2022-08-14T12:06:25;30.90;50.60
38592;DHT22;24356;48.460;11.450;2022-08-14T12:08:51;30.90;50.70
38592;DHT22;24356;48.460;11.450;2022-08-14T12:11:19;31.00;51.00
38592;DHT22;24356;48.460;11.450;2022-08-14T12:13:45;31.10;51.10
38592;DHT22;24356;48.460;11.450;2022-08-14T12:16:13;31.10;51.10
38592;DHT22;24356;48.460;11.450;2022-08-14T12:18:45;31.10;50.00
38592;DHT22;24356;48.460;11.450;2022-08-14T12:21:24;31.20;50.50
38592;DHT22;24356;48.460;11.450;2022-08-14T12:24:07;31.20;50.50
38592;DHT22;24356;48.460;11.450;2022-08-14T12:26:34;31.20;50.30
38592;DHT22;24356;48.460;11.450;2022-08-14T12:29:13;31.30;50.70
38592;DHT22;24356;48.460;11.450;2022-08-14T12:31:42;31.30;50.70
38592;DHT22;24356;48.460;11.450;2022-08-14T12:34:11;31.30;50.70
38592;DHT22;24356;48.460;11.450;2022-08-14T12:36:37;31.40;50.90
38592;DHT22;24356;48.460;11.450;2022-08-14T12:39:15;31.50;50.60
38592;DHT22;24356;48.460;11.450;2022-08-14T12:41:49;31.50;50.70
38592;DHT22;24356;48.460;11.450;2022-08-14T12:44:32;31.60;50.70
38592;DHT22;24356;48.460;11.450;2022-08-14T12:49:32;31.70;50.80
38592;DHT22;24356;48.460;11.450;2022-08-14T12:52:00;31.70;50.50
38592;DHT22;24356;48.460;11.450;2022-08-14T12:54:27;31.80;50.20
38592;DHT22;24356;48.460;11.450;2022-08-14T12:57:14;31.90;50.30
38592;DHT22;24356;48.460;11.450;2022-08-14T12:59:40;31.90;50.20
38592;DHT22;24356;48.460;11.450;2022-08-14T13:02:21;32.00;50.00
38592;DHT22;24356;48.460;11.450;2022-08-14T13:04:48;32.00;50.40
38592;DHT22;24356;48.460;11.450;2022-08-14T13:07:14;32.10;50.50
38592;DHT22;24356;48.460;11.450;2022-08-14T13:09:40;32.20;50.50
38592;DHT22;24356;48.460;11.450;2022-08-14T13:12:08;32.30;50.00
38592;DHT22;24356;48.460;11.450;2022-08-14T13:14:34;32.40;49.80
38592;DHT22;24356;48.460;11.450;2022-08-14T13:17:00;32.40;49.70
38592;DHT22;24356;48.460;11.450;2022-08-14T13:19:28;32.50;49.60
38592;DHT22;24356;48.460;11.450;2022-08-14T13:21:55;32.50;49.70
38592;DHT22;24356;48.460;11.450;2022-08-14T13:24:22;32.60;49.40
38592;DHT22;24356;48.460;11.450;2022-08-14T13:26:52;32.60;49.20
38592;DHT22;24356;48.460;11.450;2022-08-14T13:29:27;32.70;49.40
38592;DHT22;24356;48.460;11.450;2022-08-14T13:31:55;32.80;48.70
38592;DHT22;24356;48.460;11.450;2022-08-14T13:34:24;32.80;49.10
38592;DHT22;24356;48.460;11.450;2022-08-14T13:36:51;32.90;49.50
38592;DHT22;24356;48.460;11.450;2022-08-14T13:39:20;33.00;48.90
38592;DHT22;24356;48.460;11.450;2022-08-14T13:41:46;33.00;48.90
38592;DHT22;24356;48.460;11.450;2022-08-14T13:44:15;33.00;48.60
38592;DHT22;24356;48.460;11.450;2022-08-14T13:46:47;33.10;48.60
38592;DHT22;24356;48.460;11.450;2022-08-14T13:49:12;33.20;48.60
38592;DHT22;24356;48.460;11.450;2022-08-14T13:51:41;33.20;48.40
38592;DHT22;24356;48.460;11.450;2022-08-14T13:54:14;33.30;48.80
38592;DHT22;24356;48.460;11.450;2022-08-14T13:56:41;33.40;49.00
38592;DHT22;24356;48.460;11.450;2022-08-14T13:59:08;33.50;49.10
38592;DHT22;24356;48.460;11.450;2022-08-14T14:01:35;33.50;48.50
38592;DHT22;24356;48.460;11.450;2022-08-14T14:04:02;33.50;48.40
38592;DHT22;24356;48.460;11.450;2022-08-14T14:06:30;33.50;48.40
38592;DHT22;24356;48.460;11.450;2022-08-14T14:08:58;33.60;48.50
38592;DHT22;24356;48.460;11.450;2022-08-14T14:11:23;33.60;48.70
38592;DHT22;24356;48.460;11.450;2022-08-14T14:13:51;33.70;48.70
38592;DHT22;24356;48.460;11.450;2022-08-14T14:16:17;33.70;48.30
38592;DHT22;24356;48.460;11.450;2022-08-14T14:18:50;33.80;48.50
38592;DHT22;24356;48.460;11.450;2022-08-14T14:21:22;33.80;47.40
38592;DHT22;24356;48.460;11.450;2022-08-14T14:23:48;33.80;47.50
38592;DHT22;24356;48.460;11.450;2022-08-14T14:26:16;33.90;48.40
38592;DHT22;24356;48.460;11.450;2022-08-14T14:28:45;34.00;48.40
38592;DHT22;24356;48.460;11.450;2022-08-14T14:31:22;34.00;48.70
38592;DHT22;24356;48.460;11.450;2022-08-14T14:33:50;34.00;48.30
38592;DHT22;24356;48.460;11.450;2022-08-14T14:36:21;34.00;48.10
38592;DHT22;24356;48.460;11.450;2022-08-14T14:38:54;34.00;47.90
38592;DHT22;24356;48.460;11.450;2022-08-14T14:41:29;34.00;47.90
38592;DHT22;24356;48.460;11.450;2022-08-14T14:43:55;34.00;47.60
38592;DHT22;24356;48.460;11.450;2022-08-14T14:46:25;34.00;48.10
38592;DHT22;24356;48.460;11.450;2022-08-14T14:48:51;34.00;48.80
38592;DHT22;24356;48.460;11.450;2022-08-14T14:51:18;34.10;48.80
38592;DHT22;24356;48.460;11.450;2022-08-14T14:53:44;34.10;49.20
38592;DHT22;24356;48.460;11.450;2022-08-14T14:56:11;34.10;49.00
38592;DHT22;24356;48.460;11.450;2022-08-14T14:58:39;34.10;49.50
38592;DHT22;24356;48.460;11.450;2022-08-14T15:01:06;34.10;49.60
38592;DHT22;24356;48.460;11.450;2022-08-14T15:03:33;34.10;49.40
38592;DHT22;24356;48.460;11.450;2022-08-14T15:05:59;34.10;49.50
38592;DHT22;24356;48.460;11.450;2022-08-14T15:08:25;34.10;49.00
38592;DHT22;24356;48.460;11.450;2022-08-14T15:10:51;34.10;48.70
38592;DHT22;24356;48.460;11.450;2022-08-14T15:13:18;34.10;48.70
38592;DHT22;24356;48.460;11.450;2022-08-14T15:15:44;34.10;47.80
38592;DHT22;24356;48.460;11.450;2022-08-14T15:18:09;34.00;48.30
38592;DHT22;24356;48.460;11.450;2022-08-14T15:20:35;34.00;47.80
38592;DHT22;24356;48.460;11.450;2022-08-14T15:23:01;34.00;48.30
38592;DHT22;24356;48.460;11.450;2022-08-14T15:25:31;33.90;48.50
38592;DHT22;24356;48.460;11.450;2022-08-14T15:27:57;33.90;49.20
38592;DHT22;24356;48.460;11.450;2022-08-14T15:30:23;33.90;49.50
38592;DHT22;24356;48.460;11.450;2022-08-14T15:32:49;33.80;49.50
38592;DHT22;24356;48.460;11.450;2022-08-14T15:35:14;33.80;49.50
38592;DHT22;24356;48.460;11.450;2022-08-14T15:37:40;33.80;49.90
38592;DHT22;24356;48.460;11.450;2022-08-14T15:40:06;33.80;49.90
38592;DHT22;24356;48.460;11.450;2022-08-14T15:42:36;33.80;49.70
38592;DHT22;24356;48.460;11.450;2022-08-14T15:45:03;33.70;49.50
38592;DHT22;24356;48.460;11.450;2022-08-14T15:47:31;33.80;48.80
38592;DHT22;24356;48.460;11.450;2022-08-14T15:49:58;33.70;49.00